This is the latest recevied weather packets stored in our database for station/object KI4HRG. If no packets are shown the sender has not sent any weather packets the latest 10 day(s).
| Time | Temp. | Humidity | Pressure | Rain* | Wind** | Luminosity | Snow |
|---|---|---|---|---|---|---|---|
| 1787689611 | 34.44° C | 45% | 1015.9 hPa | 0 mm | - | 548 W/m² | - |
| 1787689306 | 33.89° C | 46% | 1015.8 hPa | 0 mm | - | 538 W/m² | - |
| 1787689000 | 34.44° C | 45% | 1016 hPa | 0 mm | - | 524 W/m² | - |
| 1787688697 | 33.89° C | 46% | 1016 hPa | 0 mm | - | 546 W/m² | - |
| 1787688391 | 34.44° C | 45% | 1015.9 hPa | 0 mm | - | 552 W/m² | - |
| 1787688086 | 34.44° C | 45% | 1016 hPa | 0 mm | - | 540 W/m² | - |
| 1787687782 | 34.44° C | 45% | 1015.8 hPa | 0 mm | - | 500 W/m² | - |
| 1787687482 | 33.89° C | 46% | 1016 hPa | 0 mm | - | 484 W/m² | - |
| 1787687178 | 34.44° C | 45% | 1016.1 hPa | 0 mm | - | 607 W/m² | - |
| 1787686873 | 34.44° C | 44% | 1016.3 hPa | 0 mm | - | 665 W/m² | - |
| 1787686569 | 33.89° C | 45% | 1016.1 hPa | 0 mm | - | 663 W/m² | - |
| 1787686264 | 33.89° C | 45% | 1016.2 hPa | 0 mm | - | 622 W/m² | - |
| 1787685960 | 33.89° C | 45% | 1016.2 hPa | 0 mm | - | 628 W/m² | - |
| 1787685655 | 33.89° C | 46% | 1016.2 hPa | 0 mm | - | 600 W/m² | - |
| 1787685354 | 35° C | 43% | 1016.3 hPa | 0 mm | - | 643 W/m² | - |
| 1787685050 | 34.44° C | 45% | 1016.3 hPa | 0 mm | - | 655 W/m² | - |
| 1787684745 | 35° C | 43% | 1016.4 hPa | 0 mm | - | 629 W/m² | - |
| 1787684444 | 33.33° C | 44% | 1016.4 hPa | 0 mm | - | 669 W/m² | - |
| 1787684140 | 33.89° C | 45% | 1016.3 hPa | 0 mm | - | 675 W/m² | - |
| 1787683838 | 34.44° C | 44% | 1016.6 hPa | 0 mm | - | 656 W/m² | - |
| 1787683534 | 33.89° C | 45% | 1016.4 hPa | 0 mm | - | 634 W/m² | - |
| 1787683230 | 34.44° C | 43% | 1016.4 hPa | 0 mm | - | 665 W/m² | - |
| 1787682926 | 34.44° C | 43% | 1016.4 hPa | 0 mm | - | 658 W/m² | - |
| 1787682622 | 33.89° C | 45% | 1016.5 hPa | 0 mm | - | 587 W/m² | - |
| 1787682318 | 33.89° C | 44% | 1016.5 hPa | 0 mm | - | 460 W/m² | - |
* Rain latest hour (hover to see other rain measurements)
** Current wind speed in m/s (hover to see current wind gust speed)